sensor_id;sensor_type;location;lat;lon;timestamp;pressure;altitude;pressure_sealevel;temperature;humidity
52651;BME280;38537;47.226;39.702;2023-02-19T00:01:44;99527.13;;;8.30;58.48
52651;BME280;38537;47.226;39.702;2023-02-19T00:04:19;99503.91;;;8.12;58.79
52651;BME280;38537;47.226;39.702;2023-02-19T00:06:51;99512.09;;;7.95;58.55
52651;BME280;38537;47.226;39.702;2023-02-19T00:09:21;99516.47;;;8.09;58.77
52651;BME280;38537;47.226;39.702;2023-02-19T00:11:48;99515.41;;;8.33;58.64
52651;BME280;38537;47.226;39.702;2023-02-19T00:14:19;99515.16;;;8.29;58.41
52651;BME280;38537;47.226;39.702;2023-02-19T00:16:47;99511.69;;;8.23;58.36
52651;BME280;38537;47.226;39.702;2023-02-19T00:19:18;99514.09;;;8.16;58.35
52651;BME280;38537;47.226;39.702;2023-02-19T00:21:47;99508.22;;;8.04;58.56
52651;BME280;38537;47.226;39.702;2023-02-19T00:24:15;99535.53;;;8.02;58.89
52651;BME280;38537;47.226;39.702;2023-02-19T00:26:44;99524.22;;;7.99;58.58
52651;BME280;38537;47.226;39.702;2023-02-19T00:29:14;99525.31;;;8.11;58.58
52651;BME280;38537;47.226;39.702;2023-02-19T00:31:41;99523.06;;;8.13;58.73
52651;BME280;38537;47.226;39.702;2023-02-19T00:34:10;99514.59;;;8.18;58.20
52651;BME280;38537;47.226;39.702;2023-02-19T00:36:39;99521.28;;;8.17;58.42
52651;BME280;38537;47.226;39.702;2023-02-19T00:39:07;99520.28;;;8.13;58.32
52651;BME280;38537;47.226;39.702;2023-02-19T00:41:34;99501.53;;;8.19;58.07
52651;BME280;38537;47.226;39.702;2023-02-19T00:44:05;99523.69;;;8.10;57.88
52651;BME280;38537;47.226;39.702;2023-02-19T00:46:35;99530.50;;;7.90;57.87
52651;BME280;38537;47.226;39.702;2023-02-19T00:49:04;99530.53;;;7.77;58.50
52651;BME280;38537;47.226;39.702;2023-02-19T00:51:34;99524.75;;;7.60;58.75
52651;BME280;38537;47.226;39.702;2023-02-19T00:54:03;99533.09;;;7.60;58.49
52651;BME280;38537;47.226;39.702;2023-02-19T00:56:31;99520.13;;;7.69;58.84
52651;BME280;38537;47.226;39.702;2023-02-19T00:58:58;99532.91;;;7.56;58.46
52651;BME280;38537;47.226;39.702;2023-02-19T01:01:25;99514.50;;;7.46;58.96
52651;BME280;38537;47.226;39.702;2023-02-19T01:03:52;99510.97;;;7.41;59.29
52651;BME280;38537;47.226;39.702;2023-02-19T01:06:20;99503.06;;;7.48;58.98
52651;BME280;38537;47.226;39.702;2023-02-19T01:08:48;99514.78;;;7.45;59.00
52651;BME280;38537;47.226;39.702;2023-02-19T01:11:16;99524.28;;;7.57;58.78
52651;BME280;38537;47.226;39.702;2023-02-19T01:13:43;99518.41;;;7.73;58.88
52651;BME280;38537;47.226;39.702;2023-02-19T01:16:14;99521.06;;;7.78;58.77
52651;BME280;38537;47.226;39.702;2023-02-19T01:18:42;99518.06;;;7.88;58.17
52651;BME280;38537;47.226;39.702;2023-02-19T01:21:21;99511.56;;;7.93;58.25
52651;BME280;38537;47.226;39.702;2023-02-19T01:23:49;99525.78;;;7.91;57.86
52651;BME280;38537;47.226;39.702;2023-02-19T01:26:19;99507.25;;;8.00;57.91
52651;BME280;38537;47.226;39.702;2023-02-19T01:28:47;99524.91;;;8.04;57.82
52651;BME280;38537;47.226;39.702;2023-02-19T01:31:18;99519.75;;;8.11;57.64
52651;BME280;38537;47.226;39.702;2023-02-19T01:33:51;99527.53;;;8.01;57.43
52651;BME280;38537;47.226;39.702;2023-02-19T01:36:19;99523.69;;;8.10;57.61
52651;BME280;38537;47.226;39.702;2023-02-19T01:38:47;99514.09;;;8.16;57.39
52651;BME280;38537;47.226;39.702;2023-02-19T01:41:19;99532.63;;;8.07;57.23
52651;BME280;38537;47.226;39.702;2023-02-19T01:46:43;99523.94;;;7.86;57.75
52651;BME280;38537;47.226;39.702;2023-02-19T01:49:24;99522.38;;;7.80;57.36
52651;BME280;38537;47.226;39.702;2023-02-19T01:52:03;99525.25;;;7.89;57.41
52651;BME280;38537;47.226;39.702;2023-02-19T01:54:35;99516.50;;;7.82;57.30
52651;BME280;38537;47.226;39.702;2023-02-19T01:57:07;99536.19;;;7.72;57.12
52651;BME280;38537;47.226;39.702;2023-02-19T01:59:38;99538.03;;;7.90;57.44
52651;BME280;38537;47.226;39.702;2023-02-19T02:02:08;99540.91;;;7.85;57.34
52651;BME280;38537;47.226;39.702;2023-02-19T02:04:35;99536.16;;;7.85;57.71
52651;BME280;38537;47.226;39.702;2023-02-19T02:07:03;99545.34;;;7.86;57.64
52651;BME280;38537;47.226;39.702;2023-02-19T02:09:52;99573.34;;;7.89;57.08
52651;BME280;38537;47.226;39.702;2023-02-19T02:12:38;99547.31;;;7.72;57.21
52651;BME280;38537;47.226;39.702;2023-02-19T02:15:06;99552.78;;;7.77;57.56
52651;BME280;38537;47.226;39.702;2023-02-19T02:31:15;99569.94;;;7.65;57.08
52651;BME280;38537;47.226;39.702;2023-02-19T02:36:36;99555.16;;;7.56;57.39
52651;BME280;38537;47.226;39.702;2023-02-19T02:39:08;99574.59;;;7.56;57.43
52651;BME280;38537;47.226;39.702;2023-02-19T02:41:58;99572.22;;;7.77;57.41
52651;BME280;38537;47.226;39.702;2023-02-19T02:44:56;99576.31;;;7.66;57.09
52651;BME280;38537;47.226;39.702;2023-02-19T02:47:49;99592.09;;;7.56;57.63
52651;BME280;38537;47.226;39.702;2023-02-19T02:50:24;99568.47;;;7.40;57.28
52651;BME280;38537;47.226;39.702;2023-02-19T02:52:58;99555.03;;;7.47;57.58
52651;BME280;38537;47.226;39.702;2023-02-19T02:55:48;99567.88;;;7.43;57.19
52651;BME280;38537;47.226;39.702;2023-02-19T02:58:16;99572.13;;;7.54;57.35
52651;BME280;38537;47.226;39.702;2023-02-19T03:00:50;99566.13;;;7.47;57.36
52651;BME280;38537;47.226;39.702;2023-02-19T03:03:44;99584.97;;;7.50;57.43
52651;BME280;38537;47.226;39.702;2023-02-19T03:06:16;99570.81;;;7.19;57.73
52651;BME280;38537;47.226;39.702;2023-02-19T03:09:03;99569.16;;;7.05;58.37
52651;BME280;38537;47.226;39.702;2023-02-19T03:11:33;99567.56;;;6.85;58.16
52651;BME280;38537;47.226;39.702;2023-02-19T03:14:30;99563.72;;;6.81;59.02
52651;BME280;38537;47.226;39.702;2023-02-19T03:17:30;99569.59;;;6.79;58.87
52651;BME280;38537;47.226;39.702;2023-02-19T03:20:20;99567.38;;;6.63;59.55
52651;BME280;38537;47.226;39.702;2023-02-19T03:22:51;99554.47;;;6.53;59.31
52651;BME280;38537;47.226;39.702;2023-02-19T03:25:23;99568.03;;;6.54;59.73
52651;BME280;38537;47.226;39.702;2023-02-19T03:28:14;99564.63;;;6.44;59.43
52651;BME280;38537;47.226;39.702;2023-02-19T03:30:49;99575.25;;;6.37;59.47
52651;BME280;38537;47.226;39.702;2023-02-19T03:33:21;99585.75;;;6.40;60.21
52651;BME280;38537;47.226;39.702;2023-02-19T03:35:59;99582.91;;;6.45;59.89
52651;BME280;38537;47.226;39.702;2023-02-19T03:38:49;99579.28;;;6.63;59.50
52651;BME280;38537;47.226;39.702;2023-02-19T03:41:32;99555.91;;;6.69;59.59
52651;BME280;38537;47.226;39.702;2023-02-19T03:44:16;99587.94;;;6.75;59.38
52651;BME280;38537;47.226;39.702;2023-02-19T03:47:01;99589.84;;;6.61;59.17
52651;BME280;38537;47.226;39.702;2023-02-19T03:49:38;99594.88;;;6.59;59.77
52651;BME280;38537;47.226;39.702;2023-02-19T03:55:18;99595.84;;;6.68;58.63
52651;BME280;38537;47.226;39.702;2023-02-19T03:58:02;99605.44;;;6.38;59.20
52651;BME280;38537;47.226;39.702;2023-02-19T04:00:44;99588.41;;;6.07;60.08
52651;BME280;38537;47.226;39.702;2023-02-19T04:06:00;99574.72;;;5.97;60.58
52651;BME280;38537;47.226;39.702;2023-02-19T04:08:30;99591.72;;;6.09;60.65
52651;BME280;38537;47.226;39.702;2023-02-19T04:11:03;99615.97;;;5.99;60.65
52651;BME280;38537;47.226;39.702;2023-02-19T04:13:50;99638.91;;;6.04;61.31
52651;BME280;38537;47.226;39.702;2023-02-19T04:16:23;99618.97;;;5.78;60.82
52651;BME280;38537;47.226;39.702;2023-02-19T04:18:54;99628.25;;;5.88;60.76
52651;BME280;38537;47.226;39.702;2023-02-19T04:21:23;99630.41;;;5.96;61.14
52651;BME280;38537;47.226;39.702;2023-02-19T04:23:51;99629.97;;;6.07;61.10
52651;BME280;38537;47.226;39.702;2023-02-19T04:26:19;99638.91;;;6.04;60.19
52651;BME280;38537;47.226;39.702;2023-02-19T04:28:48;99631.22;;;6.20;60.55
52651;BME280;38537;47.226;39.702;2023-02-19T04:31:16;99630.47;;;6.33;60.76
52651;BME280;38537;47.226;39.702;2023-02-19T04:33:43;99637.78;;;6.48;60.50
52651;BME280;38537;47.226;39.702;2023-02-19T04:36:10;99631.81;;;6.36;60.32
52651;BME280;38537;47.226;39.702;2023-02-19T04:38:38;99633.13;;;6.62;60.44
52651;BME280;38537;47.226;39.702;2023-02-19T04:41:05;99648.25;;;6.88;59.67
52651;BME280;38537;47.226;39.702;2023-02-19T04:43:32;99650.72;;;6.90;59.21
52651;BME280;38537;47.226;39.702;2023-02-19T04:46:01;99651.69;;;6.80;59.37
52651;BME280;38537;47.226;39.702;2023-02-19T04:48:28;99638.41;;;6.77;59.64
52651;BME280;38537;47.226;39.702;2023-02-19T04:50:55;99659.03;;;7.09;59.14
52651;BME280;38537;47.226;39.702;2023-02-19T04:53:22;99672.41;;;7.20;58.74
52651;BME280;38537;47.226;39.702;2023-02-19T04:55:50;99659.72;;;7.33;58.60
52651;BME280;38537;47.226;39.702;2023-02-19T04:58:19;99659.28;;;7.26;58.19
52651;BME280;38537;47.226;39.702;2023-02-19T05:00:53;99658.16;;;7.27;57.86
52651;BME280;38537;47.226;39.702;2023-02-19T05:03:26;99669.94;;;7.19;58.53
52651;BME280;38537;47.226;39.702;2023-02-19T05:05:55;99676.53;;;7.23;58.61
52651;BME280;38537;47.226;39.702;2023-02-19T05:08:22;99660.81;;;7.00;57.72
52651;BME280;38537;47.226;39.702;2023-02-19T05:10:49;99674.44;;;7.15;58.35
52651;BME280;38537;47.226;39.702;2023-02-19T05:13:17;99674.41;;;6.82;58.23
52651;BME280;38537;47.226;39.702;2023-02-19T05:16:03;99674.34;;;6.87;58.59
52651;BME280;38537;47.226;39.702;2023-02-19T05:18:32;99695.13;;;6.90;59.34
52651;BME280;38537;47.226;39.702;2023-02-19T05:21:00;99679.22;;;6.77;58.94
52651;BME280;38537;47.226;39.702;2023-02-19T05:23:28;99693.31;;;6.80;59.30
52651;BME280;38537;47.226;39.702;2023-02-19T05:25:55;99693.00;;;6.82;59.57
52651;BME280;38537;47.226;39.702;2023-02-19T05:28:30;99705.22;;;6.62;59.20
52651;BME280;38537;47.226;39.702;2023-02-19T05:31:11;99695.47;;;6.46;59.56
52651;BME280;38537;47.226;39.702;2023-02-19T05:33:40;99708.44;;;6.50;59.61
52651;BME280;38537;47.226;39.702;2023-02-19T05:36:11;99705.00;;;6.59;59.52
52651;BME280;38537;47.226;39.702;2023-02-19T05:38:40;99706.13;;;6.76;59.56
52651;BME280;38537;47.226;39.702;2023-02-19T05:41:11;99700.22;;;6.83;59.15
52651;BME280;38537;47.226;39.702;2023-02-19T05:43:40;99698.78;;;7.04;59.43
52651;BME280;38537;47.226;39.702;2023-02-19T05:46:09;99701.19;;;7.11;59.03
52651;BME280;38537;47.226;39.702;2023-02-19T05:48:37;99690.41;;;6.91;58.59
52651;BME280;38537;47.226;39.702;2023-02-19T05:51:07;99689.94;;;7.02;58.83
52651;BME280;38537;47.226;39.702;2023-02-19T05:53:36;99702.81;;;6.93;58.55
52651;BME280;38537;47.226;39.702;2023-02-19T05:58:46;99694.19;;;6.95;58.75
52651;BME280;38537;47.226;39.702;2023-02-19T06:01:15;99702.69;;;6.84;59.00
52651;BME280;38537;47.226;39.702;2023-02-19T06:03:43;99704.47;;;6.57;59.27
52651;BME280;38537;47.226;39.702;2023-02-19T06:06:13;99717.78;;;6.36;60.00
52651;BME280;38537;47.226;39.702;2023-02-19T06:08:40;99705.88;;;6.11;59.96
52651;BME280;38537;47.226;39.702;2023-02-19T06:11:09;99712.78;;;5.85;60.41
52651;BME280;38537;47.226;39.702;2023-02-19T06:13:37;99711.44;;;5.82;61.09
52651;BME280;38537;47.226;39.702;2023-02-19T06:16:05;99706.06;;;5.96;61.22
52651;BME280;38537;47.226;39.702;2023-02-19T06:18:33;99697.03;;;6.09;61.32
52651;BME280;38537;47.226;39.702;2023-02-19T06:21:04;99706.88;;;6.21;60.87
52651;BME280;38537;47.226;39.702;2023-02-19T06:23:32;99704.69;;;6.41;60.71
52651;BME280;38537;47.226;39.702;2023-02-19T06:26:09;99703.75;;;6.70;60.35
52651;BME280;38537;47.226;39.702;2023-02-19T06:28:38;99701.88;;;6.84;59.91
52651;BME280;38537;47.226;39.702;2023-02-19T06:31:07;99700.44;;;7.05;59.93
52651;BME280;38537;47.226;39.702;2023-02-19T06:33:36;99698.13;;;7.12;59.47
52651;BME280;38537;47.226;39.702;2023-02-19T06:36:10;99698.00;;;7.17;58.53
52651;BME280;38537;47.226;39.702;2023-02-19T06:38:38;99702.31;;;7.42;59.09
52651;BME280;38537;47.226;39.702;2023-02-19T06:41:06;99694.69;;;7.15;58.52
52651;BME280;38537;47.226;39.702;2023-02-19T06:43:36;99693.47;;;6.89;58.40
52651;BME280;38537;47.226;39.702;2023-02-19T06:46:05;99692.84;;;6.73;59.31
52651;BME280;38537;47.226;39.702;2023-02-19T06:48:33;99689.41;;;6.63;59.40
52651;BME280;38537;47.226;39.702;2023-02-19T06:51:01;99698.53;;;6.44;59.58
52651;BME280;38537;47.226;39.702;2023-02-19T06:53:28;99700.03;;;6.37;60.34
52651;BME280;38537;47.226;39.702;2023-02-19T06:56:01;99704.47;;;6.14;60.62
52651;BME280;38537;47.226;39.702;2023-02-19T06:58:29;99704.34;;;6.00;60.71
52651;BME280;38537;47.226;39.702;2023-02-19T07:00:56;99687.56;;;5.86;61.44
52651;BME280;38537;47.226;39.702;2023-02-19T07:03:24;99692.16;;;5.72;61.65
52651;BME280;38537;47.226;39.702;2023-02-19T07:05:52;99690.97;;;5.78;61.61
52651;BME280;38537;47.226;39.702;2023-02-19T07:08:19;99678.72;;;5.61;61.69
52651;BME280;38537;47.226;39.702;2023-02-19T07:10:57;99688.88;;;5.65;62.32
52651;BME280;38537;47.226;39.702;2023-02-19T07:13:25;99692.34;;;5.52;62.30
52651;BME280;38537;47.226;39.702;2023-02-19T07:16:00;99695.38;;;5.56;62.90
52651;BME280;38537;47.226;39.702;2023-02-19T07:18:29;99684.34;;;5.50;62.52
52651;BME280;38537;47.226;39.702;2023-02-19T07:21:03;99688.06;;;5.65;62.44
52651;BME280;38537;47.226;39.702;2023-02-19T07:23:30;99689.03;;;5.79;62.85
52651;BME280;38537;47.226;39.702;2023-02-19T07:25:58;99698.19;;;5.79;62.31
52651;BME280;38537;47.226;39.702;2023-02-19T07:28:25;99690.22;;;5.73;61.75
52651;BME280;38537;47.226;39.702;2023-02-19T07:30:59;99698.94;;;5.85;62.59
52651;BME280;38537;47.226;39.702;2023-02-19T07:33:27;99692.25;;;5.86;62.08
52651;BME280;38537;47.226;39.702;2023-02-19T07:35:54;99704.13;;;6.21;62.09
52651;BME280;38537;47.226;39.702;2023-02-19T07:38:23;99700.88;;;6.56;61.69
52651;BME280;38537;47.226;39.702;2023-02-19T07:40:54;99712.59;;;6.91;61.53
52651;BME280;38537;47.226;39.702;2023-02-19T07:43:27;99717.84;;;7.11;60.77
52651;BME280;38537;47.226;39.702;2023-02-19T07:45:55;99712.13;;;7.21;60.57
52651;BME280;38537;47.226;39.702;2023-02-19T07:48:22;99698.72;;;7.42;60.10
52651;BME280;38537;47.226;39.702;2023-02-19T07:50:54;99723.50;;;7.71;59.76
52651;BME280;38537;47.226;39.702;2023-02-19T07:53:22;99725.28;;;7.94;59.27
52651;BME280;38537;47.226;39.702;2023-02-19T07:55:49;99725.47;;;7.84;58.50
52651;BME280;38537;47.226;39.702;2023-02-19T07:58:17;99719.50;;;7.77;58.80
52651;BME280;38537;47.226;39.702;2023-02-19T08:00:44;99714.13;;;7.67;58.64
52651;BME280;38537;47.226;39.702;2023-02-19T08:03:12;99705.25;;;7.65;58.79
52651;BME280;38537;47.226;39.702;2023-02-19T08:05:40;99712.19;;;7.81;58.73
52651;BME280;38537;47.226;39.702;2023-02-19T08:08:10;99711.69;;;7.93;58.69
52651;BME280;38537;47.226;39.702;2023-02-19T08:10:38;99724.38;;;8.12;58.49
52651;BME280;38537;47.226;39.702;2023-02-19T08:13:29;99718.69;;;7.90;57.02
52651;BME280;38537;47.226;39.702;2023-02-19T08:18:46;99714.38;;;7.98;57.54
52651;BME280;38537;47.226;39.702;2023-02-19T08:21:14;99730.97;;;8.16;57.84
52651;BME280;38537;47.226;39.702;2023-02-19T08:23:44;99726.97;;;8.22;57.40
52651;BME280;38537;47.226;39.702;2023-02-19T08:26:12;99723.03;;;8.23;57.69
52651;BME280;38537;47.226;39.702;2023-02-19T08:28:40;99723.50;;;8.44;57.33
52651;BME280;38537;47.226;39.702;2023-02-19T08:31:09;99712.69;;;8.43;56.82
52651;BME280;38537;47.226;39.702;2023-02-19T08:33:37;99719.66;;;8.13;55.89
52651;BME280;38537;47.226;39.702;2023-02-19T08:36:06;99724.69;;;8.24;56.92
52651;BME280;38537;47.226;39.702;2023-02-19T08:38:35;99724.91;;;8.14;57.04
52651;BME280;38537;47.226;39.702;2023-02-19T08:41:06;99706.56;;;8.00;56.96
52651;BME280;38537;47.226;39.702;2023-02-19T08:43:34;99729.00;;;8.03;56.76
52651;BME280;38537;47.226;39.702;2023-02-19T08:46:02;99724.84;;;7.73;56.27
52651;BME280;38537;47.226;39.702;2023-02-19T08:48:30;99715.13;;;7.57;57.00
52651;BME280;38537;47.226;39.702;2023-02-19T08:51:02;99722.59;;;7.43;57.27
52651;BME280;38537;47.226;39.702;2023-02-19T08:53:31;99715.13;;;7.25;57.64
52651;BME280;38537;47.226;39.702;2023-02-19T08:56:03;99711.97;;;7.31;57.48
52651;BME280;38537;47.226;39.702;2023-02-19T08:58:31;99703.84;;;7.16;57.55
52651;BME280;38537;47.226;39.702;2023-02-19T09:00:59;99704.22;;;7.28;57.46
52651;BME280;38537;47.226;39.702;2023-02-19T09:03:26;99708.97;;;7.28;57.67
52651;BME280;38537;47.226;39.702;2023-02-19T09:05:53;99714.63;;;7.36;56.79
52651;BME280;38537;47.226;39.702;2023-02-19T09:08:20;99704.84;;;7.57;56.36
52651;BME280;38537;47.226;39.702;2023-02-19T09:11:05;99713.13;;;7.76;55.87
52651;BME280;38537;47.226;39.702;2023-02-19T09:13:33;99699.84;;;7.87;56.48
52651;BME280;38537;47.226;39.702;2023-02-19T09:16:02;99703.53;;;7.82;56.12
52651;BME280;38537;47.226;39.702;2023-02-19T09:18:30;99694.19;;;7.78;56.28
52651;BME280;38537;47.226;39.702;2023-02-19T09:21:04;99702.84;;;7.90;55.65
52651;BME280;38537;47.226;39.702;2023-02-19T09:23:32;99704.91;;;7.99;56.27
52651;BME280;38537;47.226;39.702;2023-02-19T09:26:00;99696.75;;;8.02;55.41
52651;BME280;38537;47.226;39.702;2023-02-19T09:28:29;99689.06;;;8.26;56.27
52651;BME280;38537;47.226;39.702;2023-02-19T09:31:06;99713.69;;;8.61;55.63
52651;BME280;38537;47.226;39.702;2023-02-19T09:33:34;99695.72;;;8.80;55.14
52651;BME280;38537;47.226;39.702;2023-02-19T09:36:02;99707.53;;;9.00;54.57
52651;BME280;38537;47.226;39.702;2023-02-19T09:38:29;99704.84;;;8.94;53.73
52651;BME280;38537;47.226;39.702;2023-02-19T09:40:58;99687.38;;;8.80;53.57
52651;BME280;38537;47.226;39.702;2023-02-19T09:43:31;99695.78;;;8.89;53.70
52651;BME280;38537;47.226;39.702;2023-02-19T09:46:08;99696.13;;;8.87;54.18
52651;BME280;38537;47.226;39.702;2023-02-19T09:48:43;99693.25;;;8.79;54.04
52651;BME280;38537;47.226;39.702;2023-02-19T09:51:11;99681.78;;;8.44;53.69
52651;BME280;38537;47.226;39.702;2023-02-19T09:53:41;99693.59;;;8.64;54.62
52651;BME280;38537;47.226;39.702;2023-02-19T09:56:10;99694.72;;;8.49;53.80
52651;BME280;38537;47.226;39.702;2023-02-19T09:58:57;99660.84;;;8.19;53.79
52651;BME280;38537;47.226;39.702;2023-02-19T10:01:28;99690.28;;;8.07;53.61
52651;BME280;38537;47.226;39.702;2023-02-19T10:03:58;99677.75;;;7.96;54.35
52651;BME280;38537;47.226;39.702;2023-02-19T10:06:27;99686.06;;;8.09;54.38
52651;BME280;38537;47.226;39.702;2023-02-19T10:09:10;99680.09;;;7.88;53.84
52651;BME280;38537;47.226;39.702;2023-02-19T10:11:40;99676.34;;;7.66;54.24
52651;BME280;38537;47.226;39.702;2023-02-19T10:14:16;99672.31;;;7.58;54.62
52651;BME280;38537;47.226;39.702;2023-02-19T10:16:46;99664.88;;;7.40;55.56
52651;BME280;38537;47.226;39.702;2023-02-19T10:19:15;99684.75;;;7.47;54.83
52651;BME280;38537;47.226;39.702;2023-02-19T10:21:43;99685.50;;;7.52;55.12
52651;BME280;38537;47.226;39.702;2023-02-19T10:24:24;99678.88;;;7.48;55.09
52651;BME280;38537;47.226;39.702;2023-02-19T10:26:53;99687.03;;;7.58;55.37
52651;BME280;38537;47.226;39.702;2023-02-19T10:29:21;99683.16;;;7.73;55.13
52651;BME280;38537;47.226;39.702;2023-02-19T10:32:17;99685.75;;;8.11;55.33
52651;BME280;38537;47.226;39.702;2023-02-19T10:34:47;99673.13;;;8.32;55.12
52651;BME280;38537;47.226;39.702;2023-02-19T10:37:19;99679.63;;;8.41;54.27
52651;BME280;38537;47.226;39.702;2023-02-19T10:39:48;99684.59;;;8.67;54.44
52651;BME280;38537;47.226;39.702;2023-02-19T10:42:21;99682.94;;;8.79;53.99
52651;BME280;38537;47.226;39.702;2023-02-19T10:44:53;99674.19;;;8.72;53.54
52651;BME280;38537;47.226;39.702;2023-02-19T10:47:23;99666.19;;;8.57;53.39
52651;BME280;38537;47.226;39.702;2023-02-19T10:49:55;99679.41;;;8.87;53.77
52651;BME280;38537;47.226;39.702;2023-02-19T10:52:32;99699.28;;;8.94;53.57
52651;BME280;38537;47.226;39.702;2023-02-19T10:57:50;99683.00;;;8.88;53.90
52651;BME280;38537;47.226;39.702;2023-02-19T11:00:21;99681.31;;;9.01;54.29
52651;BME280;38537;47.226;39.702;2023-02-19T11:02:49;99678.97;;;9.16;53.98
52651;BME280;38537;47.226;39.702;2023-02-19T11:05:19;99680.00;;;9.20;53.57
52651;BME280;38537;47.226;39.702;2023-02-19T11:07:47;99680.75;;;9.35;53.85
52651;BME280;38537;47.226;39.702;2023-02-19T11:10:38;99688.47;;;9.38;53.11
52651;BME280;38537;47.226;39.702;2023-02-19T11:13:13;99692.03;;;9.07;52.95
52651;BME280;38537;47.226;39.702;2023-02-19T11:15:42;99695.91;;;9.20;54.21
52651;BME280;38537;47.226;39.702;2023-02-19T11:18:23;99680.50;;;9.22;54.18
52651;BME280;38537;47.226;39.702;2023-02-19T11:20:55;99674.63;;;9.24;53.80
52651;BME280;38537;47.226;39.702;2023-02-19T11:23:44;99684.13;;;9.45;54.07
52651;BME280;38537;47.226;39.702;2023-02-19T11:26:24;99679.63;;;9.36;53.79
52651;BME280;38537;47.226;39.702;2023-02-19T11:28:58;99678.59;;;9.32;53.71
52651;BME280;38537;47.226;39.702;2023-02-19T11:31:31;99673.50;;;9.25;54.04
52651;BME280;38537;47.226;39.702;2023-02-19T11:34:22;99673.78;;;9.01;54.20
52651;BME280;38537;47.226;39.702;2023-02-19T11:37:13;99671.91;;;8.74;54.58
52651;BME280;38537;47.226;39.702;2023-02-19T11:39:43;99680.13;;;8.43;54.84
52651;BME280;38537;47.226;39.702;2023-02-19T11:42:18;99687.13;;;8.41;55.42
52651;BME280;38537;47.226;39.702;2023-02-19T11:45:04;99687.31;;;8.58;55.63
52651;BME280;38537;47.226;39.702;2023-02-19T11:47:49;99686.38;;;8.49;55.53
52651;BME280;38537;47.226;39.702;2023-02-19T11:50:28;99689.56;;;8.29;55.67
52651;BME280;38537;47.226;39.702;2023-02-19T11:53:12;99681.16;;;8.20;56.34
52651;BME280;38537;47.226;39.702;2023-02-19T11:56:31;99675.69;;;8.42;56.43
52651;BME280;38537;47.226;39.702;2023-02-19T12:12:49;99674.19;;;8.72;56.80
52651;BME280;38537;47.226;39.702;2023-02-19T12:15:27;99676.06;;;8.63;57.21
52651;BME280;38537;47.226;39.702;2023-02-19T12:24:07;99682.81;;;8.84;57.21
52651;BME280;38537;47.226;39.702;2023-02-19T12:38:21;99680.94;;;8.16;58.00
52651;BME280;38537;47.226;39.702;2023-02-19T12:43:25;99673.53;;;7.98;58.49
52651;BME280;38537;47.226;39.702;2023-02-19T12:45:57;99683.69;;;8.03;58.58
52651;BME280;38537;47.226;39.702;2023-02-19T12:48:38;99682.81;;;8.35;58.59
52651;BME280;38537;47.226;39.702;2023-02-19T12:51:23;99675.03;;;8.45;58.37
52651;BME280;38537;47.226;39.702;2023-02-19T12:56:54;99681.38;;;8.37;57.86
52651;BME280;38537;47.226;39.702;2023-02-19T13:04:43;99680.09;;;7.75;59.21
52651;BME280;38537;47.226;39.702;2023-02-19T13:07:23;99675.66;;;7.74;59.46
52651;BME280;38537;47.226;39.702;2023-02-19T13:09:58;99680.59;;;7.77;59.45
52651;BME280;38537;47.226;39.702;2023-02-19T13:12:33;99672.97;;;7.69;59.25
52651;BME280;38537;47.226;39.702;2023-02-19T13:15:11;99669.03;;;7.56;59.43
52651;BME280;38537;47.226;39.702;2023-02-19T13:17:44;99664.56;;;7.41;59.61
52651;BME280;38537;47.226;39.702;2023-02-19T13:20:26;99669.59;;;7.39;59.93
52651;BME280;38537;47.226;39.702;2023-02-19T13:23:10;99676.38;;;7.33;60.49
52651;BME280;38537;47.226;39.702;2023-02-19T13:26:10;99670.03;;;7.14;60.53
52651;BME280;38537;47.226;39.702;2023-02-19T13:36:58;99671.28;;;7.54;60.15
52651;BME280;38537;47.226;39.702;2023-02-19T13:39:25;99657.09;;;7.55;59.89
52651;BME280;38537;47.226;39.702;2023-02-19T13:41:57;99671.31;;;7.68;60.10
52651;BME280;38537;47.226;39.702;2023-02-19T13:44:29;99662.59;;;7.74;59.83
52651;BME280;38537;47.226;39.702;2023-02-19T13:46:57;99667.84;;;8.03;59.85
52651;BME280;38537;47.226;39.702;2023-02-19T13:52:02;99687.66;;;8.43;58.71
52651;BME280;38537;47.226;39.702;2023-02-19T13:54:49;99670.34;;;8.32;58.56
52651;BME280;38537;47.226;39.702;2023-02-19T13:59:44;99670.34;;;8.32;58.31
52651;BME280;38537;47.226;39.702;2023-02-19T14:08:10;99655.22;;;8.74;58.00
52651;BME280;38537;47.226;39.702;2023-02-19T14:10:54;99672.06;;;8.91;58.11
52651;BME280;38537;47.226;39.702;2023-02-19T14:19:12;99657.41;;;9.00;57.53
52651;BME280;38537;47.226;39.702;2023-02-19T14:21:40;99642.97;;;9.20;56.80
52651;BME280;38537;47.226;39.702;2023-02-19T14:24:10;99657.97;;;9.10;56.11
52651;BME280;38537;47.226;39.702;2023-02-19T14:26:39;99661.66;;;9.19;56.53
52651;BME280;38537;47.226;39.702;2023-02-19T14:29:08;99655.38;;;9.14;56.52
52651;BME280;38537;47.226;39.702;2023-02-19T14:31:38;99652.97;;;8.99;56.06
52651;BME280;38537;47.226;39.702;2023-02-19T14:34:21;99674.72;;;8.97;56.00
52651;BME280;38537;47.226;39.702;2023-02-19T14:36:52;99678.03;;;8.99;56.57
52651;BME280;38537;47.226;39.702;2023-02-19T14:39:25;99677.81;;;8.95;56.50
52651;BME280;38537;47.226;39.702;2023-02-19T14:41:59;99674.22;;;8.94;56.28
52651;BME280;38537;47.226;39.702;2023-02-19T14:44:30;99657.72;;;8.62;56.44
52651;BME280;38537;47.226;39.702;2023-02-19T14:47:05;99668.78;;;8.40;56.60
52651;BME280;38537;47.226;39.702;2023-02-19T14:54:59;99680.38;;;7.73;57.54
52651;BME280;38537;47.226;39.702;2023-02-19T14:57:32;99688.22;;;7.85;57.82
52651;BME280;38537;47.226;39.702;2023-02-19T15:00:19;99689.66;;;7.82;57.53
52651;BME280;38537;47.226;39.702;2023-02-19T15:02:49;99672.13;;;7.54;57.59
52651;BME280;38537;47.226;39.702;2023-02-19T15:05:24;99686.94;;;7.64;58.16
52651;BME280;38537;47.226;39.702;2023-02-19T15:07:52;99707.06;;;7.88;57.92
52651;BME280;38537;47.226;39.702;2023-02-19T15:10:21;99700.66;;;7.41;57.52
52651;BME280;38537;47.226;39.702;2023-02-19T15:12:51;99723.41;;;7.43;58.18
52651;BME280;38537;47.226;39.702;2023-02-19T15:15:28;99728.94;;;7.11;58.46